sensor_id;sensor_type;location;lat;lon;timestamp;P1;durP1;ratioP1;P2;durP2;ratioP2
70866;SDS011;58487;53.474;49.470;2023-04-03T00:00:18;8.43;;;2.20;;
70866;SDS011;58487;53.474;49.470;2023-04-03T00:02:44;7.80;;;2.00;;
70866;SDS011;58487;53.474;49.470;2023-04-03T00:05:11;7.07;;;2.38;;
70866;SDS011;58487;53.474;49.470;2023-04-03T00:07:37;7.57;;;2.33;;
70866;SDS011;58487;53.474;49.470;2023-04-03T00:10:03;7.03;;;2.20;;
70866;SDS011;58487;53.474;49.470;2023-04-03T00:12:30;6.17;;;2.40;;
70866;SDS011;58487;53.474;49.470;2023-04-03T00:14:56;7.75;;;2.45;;
70866;SDS011;58487;53.474;49.470;2023-04-03T00:17:22;11.32;;;2.53;;
70866;SDS011;58487;53.474;49.470;2023-04-03T00:19:48;8.40;;;2.15;;
70866;SDS011;58487;53.474;49.470;2023-04-03T00:22:15;8.13;;;2.50;;
70866;SDS011;58487;53.474;49.470;2023-04-03T00:24:41;8.87;;;2.57;;
70866;SDS011;58487;53.474;49.470;2023-04-03T00:27:07;7.45;;;2.50;;
70866;SDS011;58487;53.474;49.470;2023-04-03T00:29:33;8.68;;;2.78;;
70866;SDS011;58487;53.474;49.470;2023-04-03T00:32:00;7.95;;;2.95;;
70866;SDS011;58487;53.474;49.470;2023-04-03T00:34:26;9.02;;;2.85;;
70866;SDS011;58487;53.474;49.470;2023-04-03T00:36:52;8.07;;;3.60;;
70866;SDS011;58487;53.474;49.470;2023-04-03T00:39:18;9.25;;;3.58;;
70866;SDS011;58487;53.474;49.470;2023-04-03T00:41:45;9.65;;;3.67;;
70866;SDS011;58487;53.474;49.470;2023-04-03T00:44:21;8.48;;;3.53;;
70866;SDS011;58487;53.474;49.470;2023-04-03T00:46:54;11.00;;;3.55;;
70866;SDS011;58487;53.474;49.470;2023-04-03T00:49:20;9.67;;;3.27;;
70866;SDS011;58487;53.474;49.470;2023-04-03T00:51:46;8.40;;;3.42;;
70866;SDS011;58487;53.474;49.470;2023-04-03T00:54:13;8.90;;;3.20;;
70866;SDS011;58487;53.474;49.470;2023-04-03T00:56:39;7.03;;;3.13;;
70866;SDS011;58487;53.474;49.470;2023-04-03T00:59:16;9.80;;;3.20;;
70866;SDS011;58487;53.474;49.470;2023-04-03T01:01:48;7.50;;;2.80;;
70866;SDS011;58487;53.474;49.470;2023-04-03T01:04:31;6.72;;;3.10;;
70866;SDS011;58487;53.474;49.470;2023-04-03T01:07:03;7.90;;;3.10;;
70866;SDS011;58487;53.474;49.470;2023-04-03T01:09:34;7.30;;;2.92;;
70866;SDS011;58487;53.474;49.470;2023-04-03T01:14:43;8.20;;;2.90;;
70866;SDS011;58487;53.474;49.470;2023-04-03T01:22:35;8.35;;;2.95;;
70866;SDS011;58487;53.474;49.470;2023-04-03T01:25:21;11.30;;;2.97;;
70866;SDS011;58487;53.474;49.470;2023-04-03T01:27:47;8.40;;;3.10;;
70866;SDS011;58487;53.474;49.470;2023-04-03T01:30:14;10.32;;;2.80;;
70866;SDS011;58487;53.474;49.470;2023-04-03T01:32:43;8.82;;;3.10;;
70866;SDS011;58487;53.474;49.470;2023-04-03T01:35:10;9.10;;;3.25;;
70866;SDS011;58487;53.474;49.470;2023-04-03T01:37:36;7.78;;;2.95;;
70866;SDS011;58487;53.474;49.470;2023-04-03T01:40:02;5.83;;;2.47;;
70866;SDS011;58487;53.474;49.470;2023-04-03T01:42:29;9.85;;;2.83;;
70866;SDS011;58487;53.474;49.470;2023-04-03T01:44:55;7.85;;;2.90;;
70866;SDS011;58487;53.474;49.470;2023-04-03T01:47:21;6.95;;;2.90;;
70866;SDS011;58487;53.474;49.470;2023-04-03T01:49:48;8.63;;;2.97;;
70866;SDS011;58487;53.474;49.470;2023-04-03T01:52:14;6.63;;;2.57;;
70866;SDS011;58487;53.474;49.470;2023-04-03T01:54:40;11.00;;;2.70;;
70866;SDS011;58487;53.474;49.470;2023-04-03T01:57:06;10.48;;;3.17;;
70866;SDS011;58487;53.474;49.470;2023-04-03T01:59:32;9.55;;;2.50;;
70866;SDS011;58487;53.474;49.470;2023-04-03T02:01:58;6.05;;;2.30;;
70866;SDS011;58487;53.474;49.470;2023-04-03T02:04:24;15.07;;;3.70;;
70866;SDS011;58487;53.474;49.470;2023-04-03T02:06:50;10.23;;;2.50;;
70866;SDS011;58487;53.474;49.470;2023-04-03T02:09:16;6.53;;;2.25;;
70866;SDS011;58487;53.474;49.470;2023-04-03T02:11:42;9.05;;;2.53;;
70866;SDS011;58487;53.474;49.470;2023-04-03T02:14:08;6.13;;;2.42;;
70866;SDS011;58487;53.474;49.470;2023-04-03T02:16:35;6.23;;;2.37;;
70866;SDS011;58487;53.474;49.470;2023-04-03T02:19:01;6.85;;;2.70;;
70866;SDS011;58487;53.474;49.470;2023-04-03T02:21:27;6.72;;;2.53;;
70866;SDS011;58487;53.474;49.470;2023-04-03T02:23:53;7.05;;;2.30;;
70866;SDS011;58487;53.474;49.470;2023-04-03T02:26:19;7.75;;;2.35;;
70866;SDS011;58487;53.474;49.470;2023-04-03T02:28:46;8.00;;;2.50;;
70866;SDS011;58487;53.474;49.470;2023-04-03T02:31:12;10.02;;;2.88;;
70866;SDS011;58487;53.474;49.470;2023-04-03T02:33:38;12.00;;;2.65;;
70866;SDS011;58487;53.474;49.470;2023-04-03T02:36:05;8.13;;;2.53;;
70866;SDS011;58487;53.474;49.470;2023-04-03T02:38:32;6.40;;;2.72;;
70866;SDS011;58487;53.474;49.470;2023-04-03T02:41:09;7.07;;;2.40;;
70866;SDS011;58487;53.474;49.470;2023-04-03T02:43:36;6.63;;;2.20;;
70866;SDS011;58487;53.474;49.470;2023-04-03T02:46:03;12.75;;;2.65;;
70866;SDS011;58487;53.474;49.470;2023-04-03T02:48:30;8.68;;;2.58;;
70866;SDS011;58487;53.474;49.470;2023-04-03T02:50:57;7.45;;;2.58;;
70866;SDS011;58487;53.474;49.470;2023-04-03T02:53:23;5.50;;;2.10;;
70866;SDS011;58487;53.474;49.470;2023-04-03T02:55:49;6.20;;;2.20;;
70866;SDS011;58487;53.474;49.470;2023-04-03T02:58:15;7.00;;;2.20;;
70866;SDS011;58487;53.474;49.470;2023-04-03T03:00:41;9.15;;;2.50;;
70866;SDS011;58487;53.474;49.470;2023-04-03T03:03:08;8.38;;;2.20;;
70866;SDS011;58487;53.474;49.470;2023-04-03T03:05:34;9.70;;;2.63;;
70866;SDS011;58487;53.474;49.470;2023-04-03T03:08:00;5.82;;;2.20;;
70866;SDS011;58487;53.474;49.470;2023-04-03T03:10:26;5.68;;;2.05;;
70866;SDS011;58487;53.474;49.470;2023-04-03T03:12:52;8.75;;;3.08;;
70866;SDS011;58487;53.474;49.470;2023-04-03T03:15:18;9.18;;;2.00;;
70866;SDS011;58487;53.474;49.470;2023-04-03T03:17:44;8.20;;;1.90;;
70866;SDS011;58487;53.474;49.470;2023-04-03T03:20:14;6.97;;;2.08;;
70866;SDS011;58487;53.474;49.470;2023-04-03T03:22:40;6.05;;;2.15;;
70866;SDS011;58487;53.474;49.470;2023-04-03T03:25:06;6.20;;;1.90;;
70866;SDS011;58487;53.474;49.470;2023-04-03T03:27:33;8.65;;;2.28;;
70866;SDS011;58487;53.474;49.470;2023-04-03T03:29:59;10.30;;;2.00;;
70866;SDS011;58487;53.474;49.470;2023-04-03T03:32:25;5.10;;;1.95;;
70866;SDS011;58487;53.474;49.470;2023-04-03T03:34:51;6.30;;;2.05;;
70866;SDS011;58487;53.474;49.470;2023-04-03T03:37:17;11.25;;;2.15;;
70866;SDS011;58487;53.474;49.470;2023-04-03T03:39:43;5.47;;;2.00;;
70866;SDS011;58487;53.474;49.470;2023-04-03T03:42:09;7.53;;;2.17;;
70866;SDS011;58487;53.474;49.470;2023-04-03T03:44:36;7.10;;;2.00;;
70866;SDS011;58487;53.474;49.470;2023-04-03T03:47:02;11.85;;;2.20;;
70866;SDS011;58487;53.474;49.470;2023-04-03T03:49:28;5.63;;;1.90;;
70866;SDS011;58487;53.474;49.470;2023-04-03T03:51:55;6.15;;;2.00;;
70866;SDS011;58487;53.474;49.470;2023-04-03T03:54:21;4.37;;;1.73;;
70866;SDS011;58487;53.474;49.470;2023-04-03T03:56:47;5.03;;;2.00;;
70866;SDS011;58487;53.474;49.470;2023-04-03T03:59:13;8.88;;;2.00;;
70866;SDS011;58487;53.474;49.470;2023-04-03T04:01:39;8.48;;;2.45;;
70866;SDS011;58487;53.474;49.470;2023-04-03T04:04:05;10.67;;;2.87;;
70866;SDS011;58487;53.474;49.470;2023-04-03T04:06:31;6.57;;;2.10;;
70866;SDS011;58487;53.474;49.470;2023-04-03T04:08:57;8.70;;;2.47;;
70866;SDS011;58487;53.474;49.470;2023-04-03T04:11:23;7.00;;;2.58;;
70866;SDS011;58487;53.474;49.470;2023-04-03T04:13:50;6.78;;;2.13;;
70866;SDS011;58487;53.474;49.470;2023-04-03T04:16:16;9.07;;;2.00;;
70866;SDS011;58487;53.474;49.470;2023-04-03T04:18:42;11.93;;;2.22;;
70866;SDS011;58487;53.474;49.470;2023-04-03T04:21:08;21.35;;;2.00;;
70866;SDS011;58487;53.474;49.470;2023-04-03T04:23:34;11.18;;;1.88;;
70866;SDS011;58487;53.474;49.470;2023-04-03T04:26:00;5.97;;;1.87;;
70866;SDS011;58487;53.474;49.470;2023-04-03T04:28:26;7.30;;;2.30;;
70866;SDS011;58487;53.474;49.470;2023-04-03T04:30:52;7.45;;;1.88;;
70866;SDS011;58487;53.474;49.470;2023-04-03T04:33:18;10.38;;;2.35;;
70866;SDS011;58487;53.474;49.470;2023-04-03T04:35:46;6.23;;;1.80;;
70866;SDS011;58487;53.474;49.470;2023-04-03T04:38:13;7.32;;;1.83;;
70866;SDS011;58487;53.474;49.470;2023-04-03T04:40:39;8.18;;;2.00;;
70866;SDS011;58487;53.474;49.470;2023-04-03T04:43:05;5.80;;;2.20;;
70866;SDS011;58487;53.474;49.470;2023-04-03T04:45:32;9.27;;;2.47;;
70866;SDS011;58487;53.474;49.470;2023-04-03T04:47:58;9.23;;;1.90;;
70866;SDS011;58487;53.474;49.470;2023-04-03T04:50:24;6.07;;;1.88;;
70866;SDS011;58487;53.474;49.470;2023-04-03T04:52:50;7.40;;;2.00;;
70866;SDS011;58487;53.474;49.470;2023-04-03T04:55:16;6.47;;;2.08;;
70866;SDS011;58487;53.474;49.470;2023-04-03T04:57:42;11.85;;;2.95;;
70866;SDS011;58487;53.474;49.470;2023-04-03T05:00:09;6.57;;;2.10;;
70866;SDS011;58487;53.474;49.470;2023-04-03T05:02:35;7.47;;;1.90;;
70866;SDS011;58487;53.474;49.470;2023-04-03T05:05:02;7.28;;;1.92;;
70866;SDS011;58487;53.474;49.470;2023-04-03T05:07:28;7.78;;;1.90;;
70866;SDS011;58487;53.474;49.470;2023-04-03T05:09:55;7.28;;;2.20;;
70866;SDS011;58487;53.474;49.470;2023-04-03T05:12:21;12.23;;;2.27;;
70866;SDS011;58487;53.474;49.470;2023-04-03T05:14:47;6.13;;;2.30;;
70866;SDS011;58487;53.474;49.470;2023-04-03T05:17:14;10.23;;;2.65;;
70866;SDS011;58487;53.474;49.470;2023-04-03T05:19:40;6.68;;;2.40;;
70866;SDS011;58487;53.474;49.470;2023-04-03T05:22:06;9.02;;;2.20;;
70866;SDS011;58487;53.474;49.470;2023-04-03T05:24:32;11.57;;;2.67;;
70866;SDS011;58487;53.474;49.470;2023-04-03T05:26:58;6.97;;;2.10;;
70866;SDS011;58487;53.474;49.470;2023-04-03T05:29:25;5.10;;;1.80;;
70866;SDS011;58487;53.474;49.470;2023-04-03T05:31:51;20.23;;;9.23;;
70866;SDS011;58487;53.474;49.470;2023-04-03T05:34:17;5.45;;;2.20;;
70866;SDS011;58487;53.474;49.470;2023-04-03T05:36:44;7.77;;;2.33;;
70866;SDS011;58487;53.474;49.470;2023-04-03T05:39:10;10.68;;;2.28;;
70866;SDS011;58487;53.474;49.470;2023-04-03T05:41:36;9.38;;;2.10;;
70866;SDS011;58487;53.474;49.470;2023-04-03T05:44:02;9.88;;;2.65;;
70866;SDS011;58487;53.474;49.470;2023-04-03T05:46:29;8.45;;;2.35;;
70866;SDS011;58487;53.474;49.470;2023-04-03T05:48:55;7.93;;;2.20;;
70866;SDS011;58487;53.474;49.470;2023-04-03T05:51:23;6.63;;;1.90;;
70866;SDS011;58487;53.474;49.470;2023-04-03T05:54:00;6.47;;;2.15;;
70866;SDS011;58487;53.474;49.470;2023-04-03T05:56:32;10.98;;;2.47;;
70866;SDS011;58487;53.474;49.470;2023-04-03T05:58:58;8.38;;;2.20;;
70866;SDS011;58487;53.474;49.470;2023-04-03T06:01:24;8.47;;;2.47;;
70866;SDS011;58487;53.474;49.470;2023-04-03T06:03:50;8.13;;;2.30;;
70866;SDS011;58487;53.474;49.470;2023-04-03T06:06:17;8.35;;;2.40;;
70866;SDS011;58487;53.474;49.470;2023-04-03T06:08:43;13.43;;;2.53;;
70866;SDS011;58487;53.474;49.470;2023-04-03T06:11:09;11.43;;;2.50;;
70866;SDS011;58487;53.474;49.470;2023-04-03T06:13:35;7.67;;;2.23;;
70866;SDS011;58487;53.474;49.470;2023-04-03T06:16:01;6.88;;;2.30;;
70866;SDS011;58487;53.474;49.470;2023-04-03T06:18:28;5.25;;;2.25;;
70866;SDS011;58487;53.474;49.470;2023-04-03T06:20:54;8.50;;;2.15;;
70866;SDS011;58487;53.474;49.470;2023-04-03T06:23:20;11.77;;;2.50;;
70866;SDS011;58487;53.474;49.470;2023-04-03T06:25:46;9.03;;;2.50;;
70866;SDS011;58487;53.474;49.470;2023-04-03T06:28:12;9.68;;;2.60;;
70866;SDS011;58487;53.474;49.470;2023-04-03T06:30:38;7.18;;;2.10;;
70866;SDS011;58487;53.474;49.470;2023-04-03T06:33:05;12.32;;;2.50;;
70866;SDS011;58487;53.474;49.470;2023-04-03T06:35:31;9.95;;;2.83;;
70866;SDS011;58487;53.474;49.470;2023-04-03T06:37:57;9.30;;;2.40;;
70866;SDS011;58487;53.474;49.470;2023-04-03T06:40:24;9.23;;;2.40;;
70866;SDS011;58487;53.474;49.470;2023-04-03T06:42:51;10.27;;;2.60;;
70866;SDS011;58487;53.474;49.470;2023-04-03T06:45:17;7.18;;;1.88;;
70866;SDS011;58487;53.474;49.470;2023-04-03T06:47:43;12.85;;;2.50;;
70866;SDS011;58487;53.474;49.470;2023-04-03T06:50:11;11.90;;;2.77;;
70866;SDS011;58487;53.474;49.470;2023-04-03T06:52:39;8.98;;;2.45;;
70866;SDS011;58487;53.474;49.470;2023-04-03T06:55:06;9.35;;;2.75;;
70866;SDS011;58487;53.474;49.470;2023-04-03T06:57:33;9.00;;;2.63;;
70866;SDS011;58487;53.474;49.470;2023-04-03T07:00:00;8.55;;;2.40;;
70866;SDS011;58487;53.474;49.470;2023-04-03T07:02:26;9.47;;;2.67;;
70866;SDS011;58487;53.474;49.470;2023-04-03T07:04:53;10.55;;;3.28;;
70866;SDS011;58487;53.474;49.470;2023-04-03T07:07:19;14.05;;;2.40;;
70866;SDS011;58487;53.474;49.470;2023-04-03T07:09:45;9.93;;;2.30;;
70866;SDS011;58487;53.474;49.470;2023-04-03T07:12:13;15.73;;;2.90;;
70866;SDS011;58487;53.474;49.470;2023-04-03T07:14:40;9.10;;;3.00;;
70866;SDS011;58487;53.474;49.470;2023-04-03T07:17:07;9.65;;;3.20;;
70866;SDS011;58487;53.474;49.470;2023-04-03T07:19:33;20.70;;;4.85;;
70866;SDS011;58487;53.474;49.470;2023-04-03T07:22:00;10.93;;;2.90;;
70866;SDS011;58487;53.474;49.470;2023-04-03T07:24:26;12.25;;;3.35;;
70866;SDS011;58487;53.474;49.470;2023-04-03T07:26:52;9.33;;;2.40;;
70866;SDS011;58487;53.474;49.470;2023-04-03T07:29:19;16.42;;;3.03;;
70866;SDS011;58487;53.474;49.470;2023-04-03T07:31:47;11.73;;;2.90;;
70866;SDS011;58487;53.474;49.470;2023-04-03T07:34:13;12.35;;;3.00;;
70866;SDS011;58487;53.474;49.470;2023-04-03T07:36:39;7.82;;;2.38;;
70866;SDS011;58487;53.474;49.470;2023-04-03T07:39:06;12.57;;;2.60;;
70866;SDS011;58487;53.474;49.470;2023-04-03T07:41:33;9.88;;;2.45;;
70866;SDS011;58487;53.474;49.470;2023-04-03T07:43:59;9.43;;;2.47;;
70866;SDS011;58487;53.474;49.470;2023-04-03T07:46:26;13.43;;;2.33;;
70866;SDS011;58487;53.474;49.470;2023-04-03T07:48:52;16.80;;;2.88;;
70866;SDS011;58487;53.474;49.470;2023-04-03T07:51:18;17.53;;;2.63;;
70866;SDS011;58487;53.474;49.470;2023-04-03T07:53:45;12.20;;;3.30;;
70866;SDS011;58487;53.474;49.470;2023-04-03T07:56:11;9.63;;;2.60;;
70866;SDS011;58487;53.474;49.470;2023-04-03T07:58:37;9.90;;;3.10;;
70866;SDS011;58487;53.474;49.470;2023-04-03T08:01:03;10.68;;;3.30;;
70866;SDS011;58487;53.474;49.470;2023-04-03T08:03:29;25.40;;;3.87;;
70866;SDS011;58487;53.474;49.470;2023-04-03T08:06:00;14.75;;;3.50;;
70866;SDS011;58487;53.474;49.470;2023-04-03T08:08:31;11.15;;;2.90;;
70866;SDS011;58487;53.474;49.470;2023-04-03T08:10:58;14.43;;;2.53;;
70866;SDS011;58487;53.474;49.470;2023-04-03T08:13:26;10.45;;;2.40;;
70866;SDS011;58487;53.474;49.470;2023-04-03T08:15:52;7.47;;;2.40;;
70866;SDS011;58487;53.474;49.470;2023-04-03T08:18:18;9.00;;;3.28;;
70866;SDS011;58487;53.474;49.470;2023-04-03T08:20:47;11.38;;;3.30;;
70866;SDS011;58487;53.474;49.470;2023-04-03T08:23:13;12.90;;;3.15;;
70866;SDS011;58487;53.474;49.470;2023-04-03T08:25:41;12.73;;;3.15;;
70866;SDS011;58487;53.474;49.470;2023-04-03T08:28:07;8.17;;;2.97;;
70866;SDS011;58487;53.474;49.470;2023-04-03T08:30:34;6.53;;;3.03;;
70866;SDS011;58487;53.474;49.470;2023-04-03T08:33:01;9.55;;;3.15;;
70866;SDS011;58487;53.474;49.470;2023-04-03T08:35:28;9.07;;;3.47;;
70866;SDS011;58487;53.474;49.470;2023-04-03T08:37:54;8.15;;;3.08;;
70866;SDS011;58487;53.474;49.470;2023-04-03T08:40:21;8.03;;;2.90;;
70866;SDS011;58487;53.474;49.470;2023-04-03T08:50:46;13.52;;;2.90;;
70866;SDS011;58487;53.474;49.470;2023-04-03T08:53:15;10.20;;;2.63;;
70866;SDS011;58487;53.474;49.470;2023-04-03T08:55:50;7.93;;;2.97;;
70866;SDS011;58487;53.474;49.470;2023-04-03T08:58:19;9.82;;;2.70;;
70866;SDS011;58487;53.474;49.470;2023-04-03T09:03:32;8.82;;;2.83;;
70866;SDS011;58487;53.474;49.470;2023-04-03T09:06:13;11.50;;;3.03;;
70866;SDS011;58487;53.474;49.470;2023-04-03T09:09:00;10.05;;;3.65;;
70866;SDS011;58487;53.474;49.470;2023-04-03T09:20:19;16.23;;;3.70;;
70866;SDS011;58487;53.474;49.470;2023-04-03T09:22:47;10.23;;;3.33;;
70866;SDS011;58487;53.474;49.470;2023-04-03T09:25:18;11.07;;;3.38;;
70866;SDS011;58487;53.474;49.470;2023-04-03T09:28:00;21.42;;;3.45;;
70866;SDS011;58487;53.474;49.470;2023-04-03T09:30:27;6.65;;;3.10;;
70866;SDS011;58487;53.474;49.470;2023-04-03T09:32:55;11.33;;;3.60;;
70866;SDS011;58487;53.474;49.470;2023-04-03T09:37:53;9.95;;;3.55;;
70866;SDS011;58487;53.474;49.470;2023-04-03T09:43:02;12.50;;;3.50;;
70866;SDS011;58487;53.474;49.470;2023-04-03T09:45:46;16.10;;;3.23;;
70866;SDS011;58487;53.474;49.470;2023-04-03T09:50:58;14.88;;;3.03;;
70866;SDS011;58487;53.474;49.470;2023-04-03T09:53:36;15.25;;;3.28;;
70866;SDS011;58487;53.474;49.470;2023-04-03T09:58:42;10.37;;;3.30;;
70866;SDS011;58487;53.474;49.470;2023-04-03T10:01:33;8.45;;;2.70;;
70866;SDS011;58487;53.474;49.470;2023-04-03T10:04:11;11.43;;;2.60;;
70866;SDS011;58487;53.474;49.470;2023-04-03T10:06:46;13.35;;;2.95;;
70866;SDS011;58487;53.474;49.470;2023-04-03T10:12:03;16.83;;;3.10;;
70866;SDS011;58487;53.474;49.470;2023-04-03T10:14:34;9.25;;;2.60;;
70866;SDS011;58487;53.474;49.470;2023-04-03T10:19:54;13.68;;;3.00;;
70866;SDS011;58487;53.474;49.470;2023-04-03T10:28:17;15.57;;;3.38;;
70866;SDS011;58487;53.474;49.470;2023-04-03T10:39:53;11.97;;;2.70;;
70866;SDS011;58487;53.474;49.470;2023-04-03T10:43:09;20.50;;;3.58;;
70866;SDS011;58487;53.474;49.470;2023-04-03T10:45:53;9.77;;;3.17;;
70866;SDS011;58487;53.474;49.470;2023-04-03T10:48:48;10.18;;;3.58;;
70866;SDS011;58487;53.474;49.470;2023-04-03T10:51:22;13.90;;;3.38;;
70866;SDS011;58487;53.474;49.470;2023-04-03T10:56:48;18.73;;;3.15;;
70866;SDS011;58487;53.474;49.470;2023-04-03T10:59:33;14.88;;;3.00;;
70866;SDS011;58487;53.474;49.470;2023-04-03T11:02:04;17.95;;;3.17;;
70866;SDS011;58487;53.474;49.470;2023-04-03T11:04:37;21.27;;;3.45;;
70866;SDS011;58487;53.474;49.470;2023-04-03T11:07:20;15.07;;;3.00;;
70866;SDS011;58487;53.474;49.470;2023-04-03T11:09:52;10.30;;;3.03;;
70866;SDS011;58487;53.474;49.470;2023-04-03T11:12:31;18.90;;;2.78;;
70866;SDS011;58487;53.474;49.470;2023-04-03T11:15:11;12.45;;;3.22;;
70866;SDS011;58487;53.474;49.470;2023-04-03T11:17:48;10.45;;;2.95;;
70866;SDS011;58487;53.474;49.470;2023-04-03T11:20:32;17.57;;;3.20;;
70866;SDS011;58487;53.474;49.470;2023-04-03T11:23:06;15.25;;;2.80;;
70866;SDS011;58487;53.474;49.470;2023-04-03T11:25:56;17.42;;;3.05;;
70866;SDS011;58487;53.474;49.470;2023-04-03T11:28:35;16.17;;;3.10;;
70866;SDS011;58487;53.474;49.470;2023-04-03T11:36:58;12.55;;;2.63;;
70866;SDS011;58487;53.474;49.470;2023-04-03T11:39:30;12.95;;;2.97;;
70866;SDS011;58487;53.474;49.470;2023-04-03T11:44:48;14.13;;;3.53;;
70866;SDS011;58487;53.474;49.470;2023-04-03T11:47:43;15.60;;;2.90;;
70866;SDS011;58487;53.474;49.470;2023-04-03T11:50:56;22.00;;;3.47;;
70866;SDS011;58487;53.474;49.470;2023-04-03T12:19:02;13.32;;;2.60;;
70866;SDS011;58487;53.474;49.470;2023-04-03T12:45:41;20.60;;;3.17;;
70866;SDS011;58487;53.474;49.470;2023-04-03T12:48:15;25.75;;;3.28;;
70866;SDS011;58487;53.474;49.470;2023-04-03T12:50:45;14.85;;;3.13;;
70866;SDS011;58487;53.474;49.470;2023-04-03T12:53:19;19.47;;;3.00;;
70866;SDS011;58487;53.474;49.470;2023-04-03T12:58:53;22.25;;;2.80;;
70866;SDS011;58487;53.474;49.470;2023-04-03T13:01:25;16.48;;;2.65;;
70866;SDS011;58487;53.474;49.470;2023-04-03T13:03:53;16.45;;;2.78;;
70866;SDS011;58487;53.474;49.470;2023-04-03T13:06:22;19.70;;;2.67;;
70866;SDS011;58487;53.474;49.470;2023-04-03T13:08:54;16.02;;;2.72;;
70866;SDS011;58487;53.474;49.470;2023-04-03T13:11:22;16.05;;;2.83;;
70866;SDS011;58487;53.474;49.470;2023-04-03T13:13:58;14.50;;;2.60;;
70866;SDS011;58487;53.474;49.470;2023-04-03T13:16:31;25.70;;;3.20;;
70866;SDS011;58487;53.474;49.470;2023-04-03T13:18:59;15.17;;;2.60;;
70866;SDS011;58487;53.474;49.470;2023-04-03T13:21:28;25.45;;;3.25;;
70866;SDS011;58487;53.474;49.470;2023-04-03T13:23:59;15.93;;;2.50;;
70866;SDS011;58487;53.474;49.470;2023-04-03T13:26:28;15.55;;;2.40;;
70866;SDS011;58487;53.474;49.470;2023-04-03T13:29:39;10.18;;;2.47;;
70866;SDS011;58487;53.474;49.470;2023-04-03T13:31:58;14.03;;;2.83;;
70866;SDS011;58487;53.474;49.470;2023-04-03T13:34:35;15.13;;;2.78;;
70866;SDS011;58487;53.474;49.470;2023-04-03T13:37:04;20.02;;;2.40;;
70866;SDS011;58487;53.474;49.470;2023-04-03T13:39:35;15.30;;;2.50;;
70866;SDS011;58487;53.474;49.470;2023-04-03T13:45:08;15.73;;;2.23;;
70866;SDS011;58487;53.474;49.470;2023-04-03T13:47:39;15.05;;;2.70;;
70866;SDS011;58487;53.474;49.470;2023-04-03T13:53:03;18.25;;;3.58;;
70866;SDS011;58487;53.474;49.470;2023-04-03T13:55:36;14.68;;;2.38;;
70866;SDS011;58487;53.474;49.470;2023-04-03T13:58:21;13.53;;;2.67;;
70866;SDS011;58487;53.474;49.470;2023-04-03T14:01:14;16.77;;;2.30;;
70866;SDS011;58487;53.474;49.470;2023-04-03T14:03:45;19.25;;;2.58;;
70866;SDS011;58487;53.474;49.470;2023-04-03T14:06:32;14.40;;;2.55;;
70866;SDS011;58487;53.474;49.470;2023-04-03T14:08:58;18.63;;;2.60;;
70866;SDS011;58487;53.474;49.470;2023-04-03T14:11:26;16.03;;;2.60;;
70866;SDS011;58487;53.474;49.470;2023-04-03T14:13:55;18.90;;;2.92;;
70866;SDS011;58487;53.474;49.470;2023-04-03T14:16:26;18.80;;;2.58;;
70866;SDS011;58487;53.474;49.470;2023-04-03T14:18:55;17.17;;;2.97;;
70866;SDS011;58487;53.474;49.470;2023-04-03T14:21:22;14.32;;;2.67;;
70866;SDS011;58487;53.474;49.470;2023-04-03T14:23:48;28.70;;;3.13;;
70866;SDS011;58487;53.474;49.470;2023-04-03T14:26:19;18.30;;;3.20;;
70866;SDS011;58487;53.474;49.470;2023-04-03T14:28:50;10.07;;;2.17;;
70866;SDS011;58487;53.474;49.470;2023-04-03T14:31:19;18.48;;;3.67;;
70866;SDS011;58487;53.474;49.470;2023-04-03T14:33:46;18.83;;;2.70;;
70866;SDS011;58487;53.474;49.470;2023-04-03T14:38:43;13.60;;;2.75;;
70866;SDS011;58487;53.474;49.470;2023-04-03T14:41:12;21.45;;;2.92;;
70866;SDS011;58487;53.474;49.470;2023-04-03T14:43:39;16.92;;;2.75;;
70866;SDS011;58487;53.474;49.470;2023-04-03T14:46:08;20.20;;;2.70;;
70866;SDS011;58487;53.474;49.470;2023-04-03T14:48:41;19.93;;;2.50;;
70866;SDS011;58487;53.474;49.470;2023-04-03T14:51:08;18.30;;;3.65;;
70866;SDS011;58487;53.474;49.470;2023-04-03T14:53:36;19.92;;;2.40;;
70866;SDS011;58487;53.474;49.470;2023-04-03T14:56:05;18.40;;;2.95;;
70866;SDS011;58487;53.474;49.470;2023-04-03T14:58:48;13.70;;;2.50;;
70866;SDS011;58487;53.474;49.470;2023-04-03T15:01:16;11.67;;;2.83;;
70866;SDS011;58487;53.474;49.470;2023-04-03T15:03:43;21.80;;;2.65;;
70866;SDS011;58487;53.474;49.470;2023-04-03T15:06:11;20.98;;;2.40;;
70866;SDS011;58487;53.474;49.470;2023-04-03T15:08:38;30.23;;;2.58;;
70866;SDS011;58487;53.474;49.470;2023-04-03T15:11:06;17.70;;;2.33;;
70866;SDS011;58487;53.474;49.470;2023-04-03T15:13:34;21.23;;;2.20;;
70866;SDS011;58487;53.474;49.470;2023-04-03T15:16:00;8.35;;;2.17;;
70866;SDS011;58487;53.474;49.470;2023-04-03T15:18:27;15.20;;;2.08;;
70866;SDS011;58487;53.474;49.470;2023-04-03T15:20:56;11.45;;;2.83;;
70866;SDS011;58487;53.474;49.470;2023-04-03T15:23:22;15.13;;;2.92;;
70866;SDS011;58487;53.474;49.470;2023-04-03T15:25:51;21.07;;;2.87;;
70866;SDS011;58487;53.474;49.470;2023-04-03T15:28:30;30.45;;;6.38;;
70866;SDS011;58487;53.474;49.470;2023-04-03T15:30:59;19.55;;;2.90;;
70866;SDS011;58487;53.474;49.470;2023-04-03T15:33:25;28.98;;;5.47;;
70866;SDS011;58487;53.474;49.470;2023-04-03T15:35:52;25.98;;;7.35;;
70866;SDS011;58487;53.474;49.470;2023-04-03T15:38:18;26.33;;;7.43;;
70866;SDS011;58487;53.474;49.470;2023-04-03T15:40:45;30.45;;;6.85;;
70866;SDS011;58487;53.474;49.470;2023-04-03T15:43:13;35.83;;;7.07;;
70866;SDS011;58487;53.474;49.470;2023-04-03T15:45:40;24.02;;;6.80;;
70866;SDS011;58487;53.474;49.470;2023-04-03T15:48:07;18.17;;;4.28;;
70866;SDS011;58487;53.474;49.470;2023-04-03T15:50:34;19.50;;;4.63;;
70866;SDS011;58487;53.474;49.470;2023-04-03T15:53:01;16.20;;;4.90;;
70866;SDS011;58487;53.474;49.470;2023-04-03T15:55:32;13.45;;;4.40;;
70866;SDS011;58487;53.474;49.470;2023-04-03T15:58:01;19.25;;;4.90;;
70866;SDS011;58487;53.474;49.470;2023-04-03T16:00:32;24.30;;;5.05;;
70866;SDS011;58487;53.474;49.470;2023-04-03T16:03:00;24.27;;;6.47;;
70866;SDS011;58487;53.474;49.470;2023-04-03T16:05:43;23.65;;;7.00;;
70866;SDS011;58487;53.474;49.470;2023-04-03T16:08:10;27.02;;;7.22;;
70866;SDS011;58487;53.474;49.470;2023-04-03T16:10:38;24.75;;;7.30;;
70866;SDS011;58487;53.474;49.470;2023-04-03T16:13:06;23.00;;;7.30;;
70866;SDS011;58487;53.474;49.470;2023-04-03T16:15:33;30.10;;;7.70;;
70866;SDS011;58487;53.474;49.470;2023-04-03T16:18:00;33.05;;;7.80;;
70866;SDS011;58487;53.474;49.470;2023-04-03T16:20:27;27.75;;;8.73;;
70866;SDS011;58487;53.474;49.470;2023-04-03T16:22:55;26.63;;;8.68;;
70866;SDS011;58487;53.474;49.470;2023-04-03T16:25:23;22.98;;;8.55;;
70866;SDS011;58487;53.474;49.470;2023-04-03T16:27:50;31.43;;;8.13;;
70866;SDS011;58487;53.474;49.470;2023-04-03T16:30:16;31.23;;;8.73;;
70866;SDS011;58487;53.474;49.470;2023-04-03T16:32:42;39.83;;;8.77;;
70866;SDS011;58487;53.474;49.470;2023-04-03T16:35:09;26.20;;;7.35;;
70866;SDS011;58487;53.474;49.470;2023-04-03T16:37:37;30.42;;;7.38;;
70866;SDS011;58487;53.474;49.470;2023-04-03T16:40:05;23.43;;;7.77;;
70866;SDS011;58487;53.474;49.470;2023-04-03T16:42:32;25.23;;;8.30;;
70866;SDS011;58487;53.474;49.470;2023-04-03T16:44:59;30.88;;;8.70;;
70866;SDS011;58487;53.474;49.470;2023-04-03T16:47:28;27.55;;;8.15;;
70866;SDS011;58487;53.474;49.470;2023-04-03T16:49:59;25.88;;;7.88;;